createdAt,value
2019-04-11T00:00:21.489Z,9.50
2019-04-11T00:01:32.542Z,10.00
2019-04-11T00:02:21.009Z,9.50
2019-04-11T00:03:21.645Z,10.00
2019-04-11T00:04:22.066Z,9.70
2019-04-11T00:05:21.169Z,9.60
2019-04-11T00:06:21.378Z,9.80
2019-04-11T00:07:22.394Z,9.50
2019-04-11T00:08:21.740Z,9.80
2019-04-11T00:09:21.379Z,9.80
2019-04-11T00:10:21.434Z,9.50
2019-04-11T00:11:21.885Z,10.30
2019-04-11T00:12:22.150Z,9.30
2019-04-11T00:13:24.340Z,10.10
2019-04-11T00:14:22.112Z,10.20
2019-04-11T00:15:21.703Z,10.10
2019-04-11T00:16:21.754Z,10.40
2019-04-11T00:17:21.804Z,9.80
2019-04-11T00:18:22.866Z,9.50
2019-04-11T00:19:23.116Z,10.60
2019-04-11T00:20:22.195Z,11.00
2019-04-11T00:21:22.477Z,9.70
2019-04-11T00:22:22.070Z,9.60
2019-04-11T00:23:22.126Z,10.00
2019-04-11T00:24:22.903Z,10.10
2019-04-11T00:25:23.190Z,10.00
2019-04-11T00:26:22.282Z,9.70
2019-04-11T00:27:22.336Z,9.60
2019-04-11T00:28:23.633Z,9.40
2019-04-11T00:29:22.690Z,10.30
2019-04-11T00:30:22.494Z,10.00
2019-04-11T00:31:23.029Z,9.90
2019-04-11T00:32:22.600Z,10.00
2019-04-11T00:33:23.658Z,10.40
2019-04-11T00:34:22.714Z,10.10
2019-04-11T00:35:23.802Z,10.70
2019-04-11T00:36:22.811Z,9.80
2019-04-11T00:37:23.209Z,9.60
2019-04-11T00:38:23.532Z,10.10
2019-04-11T00:39:23.650Z,10.30
2019-04-11T00:40:23.022Z,10.30
2019-04-11T00:41:23.902Z,10.60
2019-04-11T00:42:23.128Z,10.20
2019-04-11T00:43:31.670Z,9.70
2019-04-11T00:44:23.233Z,10.20
2019-04-11T00:45:23.363Z,9.80
2019-04-11T00:46:24.480Z,9.80
2019-04-11T00:47:23.391Z,9.90
2019-04-11T00:48:23.858Z,9.90
2019-04-11T00:49:24.188Z,8.60
2019-04-11T00:50:23.548Z,9.90
2019-04-11T00:51:23.649Z,9.10
2019-04-11T00:52:23.654Z,9.80
2019-04-11T00:53:23.707Z,10.60
2019-04-11T00:54:24.730Z,9.90
2019-04-11T00:55:23.900Z,10.90
2019-04-11T00:56:24.191Z,10.60
2019-04-11T00:57:25.112Z,9.50
2019-04-11T00:58:23.970Z,10.30
2019-04-11T00:59:24.585Z,10.40
2019-04-11T01:00:24.075Z,10.70
2019-04-11T01:01:24.126Z,9.60
2019-04-11T01:02:25.185Z,9.90
2019-04-11T01:03:24.324Z,10.00
2019-04-11T01:04:25.456Z,9.30
2019-04-11T01:05:25.542Z,9.70
2019-04-11T01:06:24.391Z,10.10
2019-04-11T01:07:24.961Z,9.80
2019-04-11T01:08:24.495Z,10.30
2019-04-11T01:09:24.548Z,10.00
2019-04-11T01:10:24.632Z,9.50
2019-04-11T01:11:24.799Z,10.10
2019-04-11T01:12:24.830Z,9.60
2019-04-11T01:13:25.825Z,9.70
2019-04-11T01:14:25.782Z,9.20
2019-04-11T01:15:24.862Z,9.50
2019-04-11T01:16:24.915Z,9.80
2019-04-11T01:17:25.377Z,9.60
2019-04-11T01:18:25.734Z,9.80
2019-04-11T01:19:25.072Z,10.30
2019-04-11T01:20:25.124Z,10.10
2019-04-11T01:21:26.381Z,10.40
2019-04-11T01:22:26.434Z,9.60
2019-04-11T01:23:25.281Z,9.70
2019-04-11T01:24:25.976Z,9.50
2019-04-11T01:25:25.403Z,10.10
2019-04-11T01:26:26.614Z,9.80
2019-04-11T01:27:25.737Z,9.80
2019-04-11T01:28:25.542Z,10.40
2019-04-11T01:29:25.594Z,10.10
2019-04-11T01:30:25.647Z,9.70
2019-04-11T01:31:25.702Z,10.00
2019-04-11T01:32:26.407Z,10.30
2019-04-11T01:33:25.803Z,9.80
2019-04-11T01:34:26.680Z,9.70
2019-04-11T01:35:25.907Z,9.70
2019-04-11T01:36:26.944Z,10.10
2019-04-11T01:37:26.074Z,9.70
2019-04-11T01:38:26.212Z,9.50
2019-04-11T01:39:26.772Z,9.90
2019-04-11T01:40:26.171Z,9.80
2019-04-11T01:41:26.693Z,9.90
2019-04-11T01:42:27.052Z,9.50
2019-04-11T01:43:26.326Z,9.50
2019-04-11T01:44:26.379Z,9.90
2019-04-11T01:45:27.470Z,10.50
2019-04-11T01:46:26.488Z,10.00
2019-04-11T01:47:26.844Z,9.80
2019-04-11T01:48:27.797Z,9.30
2019-04-11T01:49:26.640Z,10.10
2019-04-11T01:50:27.169Z,9.60
2019-04-11T01:51:26.744Z,10.00
2019-04-11T01:52:26.796Z,10.10
2019-04-11T01:53:26.893Z,9.50
2019-04-11T01:54:27.949Z,10.00
2019-04-11T01:55:26.954Z,9.50
2019-04-11T01:56:27.350Z,9.40
2019-04-11T01:57:27.631Z,9.80
2019-04-11T01:58:27.107Z,9.40
2019-04-11T01:59:27.165Z,9.60
2019-04-11T02:00:28.080Z,10.20
2019-04-11T02:01:28.499Z,9.70
2019-04-11T02:02:28.604Z,10.10
2019-04-11T02:03:27.495Z,9.20
2019-04-11T02:04:27.915Z,9.60
2019-04-11T02:05:27.472Z,10.30
2019-04-11T02:06:27.729Z,9.40
2019-04-11T02:07:28.809Z,10.30
2019-04-11T02:08:27.631Z,9.30
2019-04-11T02:09:28.343Z,9.50
2019-04-11T02:10:28.697Z,9.60
2019-04-11T02:11:27.785Z,9.00
2019-04-11T02:12:28.960Z,9.90
2019-04-11T02:13:28.014Z,10.20
2019-04-11T02:14:28.062Z,9.30
2019-04-11T02:15:28.241Z,10.40
2019-04-11T02:16:29.257Z,10.30
2019-04-11T02:17:28.097Z,9.20
2019-04-11T02:18:28.151Z,9.90
2019-04-11T02:19:28.211Z,9.50
2019-04-11T02:20:29.136Z,9.50
2019-04-11T02:21:29.469Z,10.70
2019-04-11T02:22:28.590Z,9.90
2019-04-11T02:23:28.860Z,10.20
2019-04-11T02:24:28.459Z,10.20
2019-04-11T02:25:28.511Z,9.70
2019-04-11T02:26:29.359Z,9.60
2019-04-11T02:27:28.618Z,9.70
2019-04-11T02:28:28.778Z,9.50
2019-04-11T02:29:29.747Z,10.00
2019-04-11T02:30:30.514Z,10.20
2019-04-11T02:31:30.438Z,9.60
2019-04-11T02:32:29.330Z,9.20
2019-04-11T02:33:30.518Z,9.30
2019-04-11T02:34:29.649Z,10.00
2019-04-11T02:35:29.034Z,9.70
2019-04-11T02:36:30.053Z,9.90
2019-04-11T02:37:29.457Z,9.00
2019-04-11T02:38:30.417Z,9.10
2019-04-11T02:39:31.167Z,9.20
2019-04-11T02:40:30.050Z,9.60
2019-04-11T02:41:29.877Z,9.30
2019-04-11T02:42:30.666Z,9.90
2019-04-11T02:43:29.637Z,9.90
2019-04-11T02:44:45.476Z,10.10
2019-04-11T02:45:42.868Z,9.80
2019-04-11T02:46:40.755Z,10.00
2019-04-11T02:47:32.457Z,10.10
2019-04-11T02:48:31.037Z,9.50
2019-04-11T02:49:31.173Z,9.50
2019-04-11T02:50:30.042Z,9.90
2019-04-11T02:51:31.177Z,9.80
2019-04-11T02:52:31.175Z,9.00
2019-04-11T02:53:30.777Z,10.00
2019-04-11T02:54:30.666Z,9.10
2019-04-11T02:55:31.672Z,9.30
2019-04-11T02:56:31.227Z,10.00
2019-04-11T02:57:30.189Z,9.50
2019-04-11T02:58:31.754Z,10.00
2019-04-11T02:59:30.579Z,9.50
2019-04-11T03:00:31.142Z,10.10
2019-04-11T03:01:31.934Z,10.00
2019-04-11T03:02:30.866Z,10.20
2019-04-11T03:03:32.091Z,9.40
2019-04-11T03:04:31.075Z,8.40
2019-04-11T03:05:31.027Z,9.50
2019-04-11T03:06:31.091Z,9.00
2019-04-11T03:07:32.005Z,9.80
2019-04-11T03:08:34.215Z,9.70
2019-04-11T03:09:31.359Z,9.30
2019-04-11T03:10:31.397Z,9.80
2019-04-11T03:11:32.541Z,9.50
2019-04-11T03:12:31.961Z,9.10
2019-04-11T03:13:33.186Z,10.00
2019-04-11T03:14:46.156Z,9.80
2019-04-11T03:15:44.619Z,10.00
2019-04-11T03:16:42.941Z,9.90
2019-04-11T03:17:36.139Z,9.40
2019-04-11T03:18:49.430Z,9.60
2019-04-11T03:19:43.890Z,9.60
2019-04-11T03:20:39.560Z,9.60
2019-04-11T03:21:36.746Z,9.40
2019-04-11T03:22:32.154Z,9.10
2019-04-11T03:23:33.036Z,9.50
2019-04-11T03:24:33.447Z,9.30
2019-04-11T03:25:33.054Z,10.40
2019-04-11T03:26:33.439Z,9.80
2019-04-11T03:27:32.590Z,9.60
2019-04-11T03:28:33.504Z,10.90
2019-04-11T03:29:33.758Z,9.80
2019-04-11T03:30:51.829Z,9.30
2019-04-11T03:32:10.920Z,10.10
2019-04-11T03:33:17.283Z,9.50
2019-04-11T03:36:28.621Z,9.20
2019-04-11T03:37:55.128Z,10.00
2019-04-11T03:38:55.232Z,9.70
2019-04-11T03:39:50.776Z,9.50
2019-04-11T03:40:50.512Z,10.60
2019-04-11T03:41:53.566Z,10.20
2019-04-11T03:42:49.460Z,9.90
2019-04-11T03:43:45.169Z,10.10
2019-04-11T03:44:38.346Z,10.10
2019-04-11T03:45:52.467Z,9.50
2019-04-11T03:46:49.207Z,9.70
2019-04-11T03:47:44.812Z,9.30
2019-04-11T03:48:43.729Z,10.40
2019-04-11T03:49:43.250Z,10.20
2019-04-11T03:50:34.895Z,9.80
2019-04-11T03:51:33.987Z,10.20
2019-04-11T03:52:34.627Z,10.60
2019-04-11T03:53:34.258Z,9.70
2019-04-11T03:54:34.230Z,9.10
2019-04-11T03:55:34.867Z,9.60
2019-04-11T03:56:34.569Z,9.50
2019-04-11T03:57:34.258Z,9.20
2019-04-11T03:58:33.607Z,10.00
2019-04-11T03:59:34.307Z,9.40
2019-04-11T04:00:36.355Z,9.30
2019-04-11T04:01:34.100Z,9.80
2019-04-11T04:02:34.837Z,10.10
2019-04-11T04:03:34.233Z,9.40
2019-04-11T04:04:35.258Z,9.50
2019-04-11T04:05:36.576Z,9.80
2019-04-11T04:06:33.726Z,9.60
2019-04-11T04:07:34.033Z,8.60
2019-04-11T04:08:34.350Z,9.40
2019-04-11T04:09:35.273Z,9.30
2019-04-11T04:10:34.099Z,9.60
2019-04-11T04:11:34.766Z,10.20
2019-04-11T04:12:35.631Z,9.70
2019-04-11T04:13:34.544Z,9.60
2019-04-11T04:14:34.702Z,9.50
2019-04-11T04:15:47.184Z,9.60
2019-04-11T04:16:40.775Z,9.70
2019-04-11T04:17:35.278Z,9.70
2019-04-11T04:18:36.103Z,10.00
2019-04-11T04:19:35.392Z,9.60
2019-04-11T04:20:35.227Z,9.70
2019-04-11T04:21:35.249Z,9.60
2019-04-11T04:22:35.609Z,9.10
2019-04-11T04:23:35.938Z,9.10
2019-04-11T04:24:39.327Z,9.40
2019-04-11T04:25:34.834Z,9.10
2019-04-11T04:26:35.551Z,8.90
2019-04-11T04:27:35.397Z,9.30
2019-04-11T04:28:35.750Z,9.80
2019-04-11T04:29:37.183Z,10.20
2019-04-11T04:30:36.001Z,10.40
2019-04-11T04:31:35.172Z,9.50
2019-04-11T04:32:36.227Z,9.30
2019-04-11T04:33:36.108Z,10.10
2019-04-11T04:34:36.049Z,9.70
2019-04-11T04:35:38.811Z,9.00
2019-04-11T04:36:35.247Z,9.50
2019-04-11T04:37:35.296Z,8.90
2019-04-11T04:38:35.579Z,9.80
2019-04-11T04:39:36.956Z,9.40
2019-04-11T04:40:49.954Z,10.00
2019-04-11T04:41:42.922Z,9.20
2019-04-11T04:42:40.383Z,9.00
2019-04-11T04:43:36.512Z,9.70
2019-04-11T04:44:35.655Z,9.60
2019-04-11T04:45:54.511Z,9.80
2019-04-11T04:46:52.780Z,8.40
2019-04-11T04:47:42.201Z,9.60
2019-04-11T04:48:35.859Z,9.30
2019-04-11T04:49:36.511Z,8.40
2019-04-11T04:50:36.694Z,9.70
2019-04-11T04:51:37.265Z,8.90
2019-04-11T04:52:38.032Z,8.80
2019-04-11T04:53:36.246Z,9.20
2019-04-11T04:54:36.536Z,9.40
2019-04-11T04:55:36.765Z,9.40
2019-04-11T04:56:37.514Z,9.80
2019-04-11T04:57:37.652Z,9.30
2019-04-11T04:58:37.881Z,9.30
2019-04-11T04:59:38.398Z,9.70
2019-04-11T05:00:37.646Z,9.80
2019-04-11T05:01:37.349Z,9.50
2019-04-11T05:02:37.362Z,8.70
2019-04-11T05:03:37.931Z,9.60
2019-04-11T05:04:38.168Z,9.80
2019-04-11T05:05:38.308Z,9.20
2019-04-11T05:06:36.782Z,8.70
2019-04-11T05:07:40.220Z,9.30
2019-04-11T05:08:36.877Z,9.40
2019-04-11T05:09:38.364Z,9.30
2019-04-11T05:10:38.160Z,9.20
2019-04-11T05:11:38.278Z,9.30
2019-04-11T05:12:38.629Z,9.30
2019-04-11T05:13:38.644Z,8.80
2019-04-11T05:14:37.381Z,8.80
2019-04-11T05:15:38.421Z,9.40
2019-04-11T05:16:37.633Z,9.40
2019-04-11T05:17:38.697Z,8.30
2019-04-11T05:18:37.386Z,9.60
2019-04-11T05:19:38.381Z,9.40
2019-04-11T05:20:38.529Z,9.00
2019-04-11T05:21:37.544Z,8.90
2019-04-11T05:22:37.587Z,8.50
2019-04-11T05:23:37.640Z,9.10
2019-04-11T05:24:38.857Z,8.90
2019-04-11T05:25:38.842Z,9.00
2019-04-11T05:26:37.792Z,8.90
2019-04-11T05:27:37.924Z,8.80
2019-04-11T05:28:37.894Z,8.90
2019-04-11T05:29:37.944Z,8.70
2019-04-11T05:30:37.995Z,8.60
2019-04-11T05:31:38.728Z,9.10
2019-04-11T05:32:38.097Z,9.90
2019-04-11T05:33:39.111Z,10.40
2019-04-11T05:34:39.276Z,9.30
2019-04-11T05:35:38.249Z,9.70
2019-04-11T05:36:38.736Z,8.80
2019-04-11T05:37:39.641Z,9.50
2019-04-11T05:38:38.402Z,10.00
2019-04-11T05:39:38.464Z,9.70
2019-04-11T05:40:38.505Z,9.50
2019-04-11T05:41:42.101Z,9.00
2019-04-11T05:42:39.638Z,9.30
2019-04-11T05:43:41.295Z,9.40
2019-04-11T05:44:40.317Z,9.10
2019-04-11T05:45:38.760Z,9.70
2019-04-11T05:46:49.142Z,9.60
2019-04-11T05:47:39.299Z,9.40
2019-04-11T05:48:39.063Z,9.50
2019-04-11T05:49:40.824Z,9.40
2019-04-11T05:50:44.253Z,10.20
2019-04-11T05:51:41.646Z,9.70
2019-04-11T05:52:39.992Z,9.10
2019-04-11T05:53:39.232Z,9.30
2019-04-11T05:54:41.865Z,8.90
2019-04-11T05:55:43.257Z,8.30
2019-04-11T05:56:39.553Z,8.50
2019-04-11T05:57:40.436Z,8.60
2019-04-11T05:58:42.124Z,8.10
2019-04-11T05:59:39.480Z,8.50
2019-04-11T06:00:40.897Z,8.40
2019-04-11T06:01:39.581Z,8.60
2019-04-11T06:02:39.631Z,8.80
2019-04-11T06:03:43.256Z,8.50
2019-04-11T06:04:40.590Z,8.50
2019-04-11T06:05:40.789Z,8.50
2019-04-11T06:06:40.329Z,8.40
2019-04-11T06:07:42.075Z,8.30
2019-04-11T06:08:39.944Z,8.40
2019-04-11T06:09:41.620Z,8.10
2019-04-11T06:10:42.646Z,8.50
2019-04-11T06:11:41.172Z,8.20
2019-04-11T06:12:41.337Z,8.60
2019-04-11T06:13:40.650Z,7.70
2019-04-11T06:14:40.250Z,9.50
2019-04-11T06:15:42.809Z,9.40
2019-04-11T06:16:46.173Z,9.50
2019-04-11T06:17:40.758Z,9.60
2019-04-11T06:18:43.846Z,9.80
2019-04-11T06:19:41.558Z,9.70
2019-04-11T06:20:40.558Z,9.60
2019-04-11T06:21:40.609Z,9.50
2019-04-11T06:22:40.661Z,9.70
2019-04-11T06:23:40.712Z,9.60
2019-04-11T06:24:40.764Z,10.10
2019-04-11T06:25:44.542Z,9.50
2019-04-11T06:26:40.869Z,9.20
2019-04-11T06:27:42.813Z,9.30
2019-04-11T06:28:40.971Z,10.20
2019-04-11T06:29:41.080Z,9.40
2019-04-11T06:30:42.228Z,9.50
2019-04-11T06:31:42.253Z,10.00
2019-04-11T06:32:41.180Z,9.50
2019-04-11T06:33:41.240Z,10.10
2019-04-11T06:34:41.714Z,10.30
2019-04-11T06:35:41.336Z,9.70
2019-04-11T06:36:41.387Z,9.40
2019-04-11T06:37:41.612Z,10.10
2019-04-11T06:38:41.491Z,9.70
2019-04-11T06:39:41.544Z,9.30
2019-04-11T06:40:41.862Z,9.70
2019-04-11T06:41:41.649Z,8.90
2019-04-11T06:42:41.703Z,8.50
2019-04-11T06:43:42.592Z,8.40
2019-04-11T06:44:41.809Z,9.00
2019-04-11T06:45:41.923Z,8.70
2019-04-11T06:46:50.477Z,8.30
2019-04-11T06:47:43.068Z,9.20
2019-04-11T06:48:42.204Z,10.10
2019-04-11T06:49:42.575Z,9.80
2019-04-11T06:50:42.120Z,9.10
2019-04-11T06:51:42.172Z,9.80
2019-04-11T06:52:43.299Z,9.50
2019-04-11T06:53:42.279Z,8.90
2019-04-11T06:54:43.382Z,9.00
2019-04-11T06:55:42.697Z,9.10
2019-04-11T06:56:43.384Z,8.90
2019-04-11T06:57:42.495Z,9.00
2019-04-11T06:58:43.642Z,8.60
2019-04-11T06:59:42.965Z,8.70
2019-04-11T07:00:42.648Z,8.10
2019-04-11T07:01:42.700Z,8.30
2019-04-11T07:02:42.754Z,8.70
2019-04-11T07:03:42.810Z,7.70
2019-04-11T07:04:43.848Z,8.40
2019-04-11T07:05:42.913Z,7.50
2019-04-11T07:06:43.908Z,7.80
2019-04-11T07:07:43.111Z,8.10
2019-04-11T07:08:43.073Z,7.80
2019-04-11T07:09:43.142Z,7.00
2019-04-11T07:10:43.180Z,7.50
2019-04-11T07:11:43.234Z,7.30
2019-04-11T07:12:43.287Z,7.60
2019-04-11T07:13:43.409Z,6.70
2019-04-11T07:14:43.415Z,6.50
2019-04-11T07:15:44.230Z,6.90
2019-04-11T07:16:44.636Z,6.50
2019-04-11T07:17:43.851Z,6.30
2019-04-11T07:18:44.226Z,6.70
2019-04-11T07:19:44.484Z,6.10
2019-04-11T07:20:43.751Z,6.30
2019-04-11T07:21:44.041Z,7.00
2019-04-11T07:22:43.822Z,7.10
2019-04-11T07:23:44.670Z,7.70
2019-04-11T07:24:43.930Z,6.70
2019-04-11T07:25:45.075Z,7.10
2019-04-11T07:26:44.036Z,7.20
2019-04-11T07:27:45.073Z,7.20
2019-04-11T07:28:44.145Z,6.50
2019-04-11T07:29:44.303Z,7.00
2019-04-11T07:30:45.181Z,6.00
2019-04-11T07:31:44.376Z,6.40
2019-04-11T07:32:45.104Z,6.30
2019-04-11T07:33:45.079Z,6.30
2019-04-11T07:34:45.657Z,6.30
2019-04-11T07:35:45.128Z,6.30
2019-04-11T07:36:44.577Z,7.30
2019-04-11T07:37:44.839Z,6.10
2019-04-11T07:38:45.552Z,6.50
2019-04-11T07:39:45.061Z,6.40
2019-04-11T07:40:44.793Z,5.70
2019-04-11T07:41:45.560Z,6.40
2019-04-11T07:42:44.904Z,6.20
2019-04-11T07:43:44.967Z,6.10
2019-04-11T07:44:45.223Z,5.70
2019-04-11T07:45:45.063Z,5.70
2019-04-11T07:46:45.118Z,6.50
2019-04-11T07:47:46.078Z,6.50
2019-04-11T07:48:45.228Z,7.00
2019-04-11T07:49:45.279Z,6.10
2019-04-11T07:50:46.434Z,6.40
2019-04-11T07:51:45.389Z,5.60
2019-04-11T07:52:45.446Z,6.50
2019-04-11T07:53:45.942Z,5.90
2019-04-11T07:54:45.722Z,6.50
2019-04-11T07:55:46.610Z,6.50
2019-04-11T07:56:46.333Z,6.20
2019-04-11T07:57:46.785Z,6.70
2019-04-11T07:58:45.817Z,6.00
2019-04-11T07:59:46.707Z,5.90
2019-04-11T08:00:49.024Z,6.00
2019-04-11T08:01:46.929Z,6.60
2019-04-11T08:02:46.008Z,6.30
2019-04-11T08:03:46.973Z,6.20
2019-04-11T08:04:47.270Z,5.80
2019-04-11T08:05:46.687Z,6.60
2019-04-11T08:06:46.207Z,6.50
2019-04-11T08:07:46.882Z,6.40
2019-04-11T08:08:47.120Z,6.60
2019-04-11T08:09:46.369Z,6.10
2019-04-11T08:10:46.430Z,6.70
2019-04-11T08:11:47.702Z,6.60
2019-04-11T08:12:47.869Z,6.80
2019-04-11T08:13:47.189Z,6.10
2019-04-11T08:14:46.744Z,6.00
2019-04-11T08:15:46.696Z,5.60
2019-04-11T08:16:46.928Z,6.40
2019-04-11T08:17:47.991Z,3.20
2019-04-11T08:18:46.859Z,6.10
2019-04-11T08:19:47.017Z,6.50
2019-04-11T08:20:47.799Z,7.10
2019-04-11T08:21:47.182Z,6.30
2019-04-11T08:22:47.498Z,6.10
2019-04-11T08:24:20.518Z,4.90
2019-04-11T08:24:47.191Z,5.10
2019-04-11T08:25:47.518Z,5.80
2019-04-11T08:26:48.374Z,6.50
2019-04-11T08:27:54.655Z,6.00
2019-04-11T08:28:59.269Z,6.00
2019-04-11T08:29:49.946Z,6.10
2019-04-11T08:30:48.814Z,5.30
2019-04-11T08:31:48.686Z,6.10
2019-04-11T08:32:47.627Z,6.00
2019-04-11T08:33:48.848Z,5.70
2019-04-11T08:34:48.000Z,6.00
2019-04-11T08:35:51.620Z,4.50
2019-04-11T08:36:48.932Z,5.50
2019-04-11T08:37:47.908Z,6.00
2019-04-11T08:38:48.776Z,6.20
2019-04-11T08:39:49.082Z,5.30
2019-04-11T08:40:49.126Z,4.90
2019-04-11T08:41:48.122Z,5.50
2019-04-11T08:42:48.672Z,5.60
2019-04-11T08:43:48.232Z,5.50
2019-04-11T08:44:48.286Z,5.00
2019-04-11T08:45:48.547Z,5.90
2019-04-11T08:46:48.404Z,4.60
2019-04-11T08:47:52.624Z,5.50
2019-04-11T08:48:48.971Z,5.00
2019-04-11T08:49:48.564Z,5.90
2019-04-11T08:50:48.617Z,5.20
2019-04-11T08:51:49.595Z,4.60
2019-04-11T08:52:48.761Z,5.40
2019-04-11T08:53:49.032Z,5.20
2019-04-11T08:54:50.056Z,4.00
2019-04-11T08:55:55.374Z,5.30
2019-04-11T08:56:49.436Z,5.70
2019-04-11T08:57:49.860Z,5.80
2019-04-11T08:58:49.101Z,5.40
2019-04-11T08:59:49.398Z,4.50
2019-04-11T09:00:51.046Z,6.00
2019-04-11T09:01:49.221Z,4.90
2019-04-11T09:02:49.275Z,5.30
2019-04-11T09:04:01.342Z,6.10
2019-04-11T09:04:50.318Z,5.50
2019-04-11T09:05:49.440Z,5.90
2019-04-11T09:06:49.503Z,5.00
2019-04-11T09:07:49.870Z,5.30
2019-04-11T09:08:49.663Z,5.40
2019-04-11T09:09:49.700Z,4.30
2019-04-11T09:10:50.690Z,5.20
2019-04-11T09:11:49.815Z,4.60
2019-04-11T09:12:50.883Z,5.00
2019-04-11T09:13:49.882Z,5.30
2019-04-11T09:14:50.593Z,5.80
2019-04-11T09:15:50.822Z,4.70
2019-04-11T09:16:50.052Z,5.20
2019-04-11T09:17:58.933Z,3.70
2019-04-11T09:18:50.283Z,4.80
2019-04-11T09:19:51.392Z,5.70
2019-04-11T09:20:50.269Z,5.50
2019-04-11T09:21:50.826Z,5.20
2019-04-11T09:22:50.385Z,5.30
2019-04-11T09:23:50.435Z,4.90
2019-04-11T09:24:50.612Z,4.70
2019-04-11T09:25:53.240Z,5.50
2019-04-11T09:26:50.600Z,5.10
2019-04-11T09:27:51.032Z,5.60
2019-04-11T09:28:51.587Z,5.10
2019-04-11T09:29:50.767Z,5.30
2019-04-11T09:30:50.821Z,5.90
2019-04-11T09:31:51.714Z,5.10
2019-04-11T09:32:50.937Z,4.80
2019-04-11T09:33:51.042Z,5.30
2019-04-11T09:34:52.186Z,6.00
2019-04-11T09:35:51.303Z,5.00
2019-04-11T09:36:51.365Z,5.50
2019-04-11T09:37:51.799Z,5.30
2019-04-11T09:38:51.290Z,5.60
2019-04-11T09:39:51.321Z,5.90
2019-04-11T09:40:52.115Z,5.40
2019-04-11T09:41:52.417Z,4.60
2019-04-11T09:42:51.531Z,4.60
2019-04-11T09:43:52.615Z,5.50
2019-04-11T09:44:51.617Z,5.50
2019-04-11T09:45:52.584Z,5.30
2019-04-11T09:46:51.713Z,5.00
2019-04-11T09:47:51.955Z,4.30
2019-04-11T09:48:51.833Z,3.70
2019-04-11T09:49:51.876Z,4.20
2019-04-11T09:50:52.987Z,5.00
2019-04-11T09:51:52.079Z,5.20
2019-04-11T09:52:54.398Z,5.30
2019-04-11T09:53:52.921Z,5.50
2019-04-11T09:54:52.622Z,5.10
2019-04-11T09:55:52.218Z,5.30
2019-04-11T09:56:52.266Z,5.50
2019-04-11T09:57:52.598Z,5.00
2019-04-11T09:58:52.377Z,3.90
2019-04-11T09:59:52.433Z,5.20
2019-04-11T10:00:52.931Z,5.00
2019-04-11T10:01:52.548Z,5.30
2019-04-11T10:02:52.775Z,5.40
2019-04-11T10:03:52.954Z,5.40
2019-04-11T10:04:54.307Z,5.20
2019-04-11T10:05:53.093Z,5.40
2019-04-11T10:06:53.229Z,5.20
2019-04-11T10:07:52.878Z,5.10
2019-04-11T10:08:53.192Z,5.10
2019-04-11T10:09:54.191Z,5.00
2019-04-11T10:10:53.334Z,4.90
2019-04-11T10:11:53.118Z,5.20
2019-04-11T10:12:54.201Z,5.20
2019-04-11T10:13:53.346Z,4.30
2019-04-11T10:14:53.638Z,4.90
2019-04-11T10:15:53.655Z,4.70
2019-04-11T10:16:53.393Z,4.80
2019-04-11T10:17:54.758Z,4.10
2019-04-11T10:18:53.677Z,4.10
2019-04-11T10:19:54.136Z,5.40
2019-04-11T10:20:53.606Z,5.30
2019-04-11T10:21:54.379Z,5.40
2019-04-11T10:22:54.429Z,5.60
2019-04-11T10:23:53.773Z,4.90
2019-04-11T10:24:54.784Z,5.30
2019-04-11T10:25:53.887Z,5.10
2019-04-11T10:26:54.023Z,5.40
2019-04-11T10:27:55.161Z,5.60
2019-04-11T10:28:54.054Z,4.70
2019-04-11T10:29:54.690Z,4.70
2019-04-11T10:30:54.167Z,5.40
2019-04-11T10:31:54.859Z,5.30
2019-04-11T10:32:55.296Z,4.40
2019-04-11T10:33:55.427Z,4.60
2019-04-11T10:34:54.390Z,5.00
2019-04-11T10:35:54.542Z,5.20
2019-04-11T10:36:55.709Z,5.20
2019-04-11T10:37:54.559Z,5.50
2019-04-11T10:38:55.097Z,4.30
2019-04-11T10:39:54.674Z,3.50
2019-04-11T10:40:54.732Z,4.80
2019-04-11T10:41:55.965Z,4.40
2019-04-11T10:42:55.896Z,4.50
2019-04-11T10:43:54.903Z,4.80
2019-04-11T10:44:56.172Z,4.80
2019-04-11T10:45:55.288Z,4.80
2019-04-11T10:46:55.757Z,5.20
2019-04-11T10:47:55.966Z,4.40
2019-04-11T10:48:55.230Z,4.90
2019-04-11T10:49:55.252Z,5.20
2019-04-11T10:50:56.182Z,5.30
2019-04-11T10:51:56.046Z,5.80
2019-04-11T10:52:55.430Z,5.50
2019-04-11T10:53:55.496Z,5.40
2019-04-11T10:54:55.549Z,5.40
2019-04-11T10:55:55.767Z,5.20
2019-04-11T10:56:55.821Z,5.30
2019-04-11T10:57:56.187Z,5.20
2019-04-11T10:58:55.797Z,5.00
2019-04-11T10:59:56.583Z,5.20
2019-04-11T11:00:55.912Z,5.10
2019-04-11T11:01:56.122Z,5.40
2019-04-11T11:02:56.038Z,5.70
2019-04-11T11:03:56.095Z,5.10
2019-04-11T11:04:56.864Z,5.30
2019-04-11T11:05:56.216Z,5.20
2019-04-11T11:06:56.279Z,5.20
2019-04-11T11:07:57.163Z,5.30
2019-04-11T11:08:57.375Z,4.90
2019-04-11T11:09:56.721Z,4.70
2019-04-11T11:10:57.692Z,5.30
2019-04-11T11:11:56.835Z,5.10
2019-04-11T11:12:57.295Z,5.20
2019-04-11T11:13:56.712Z,5.60
2019-04-11T11:14:56.774Z,4.60
2019-04-11T11:15:57.969Z,4.70
2019-04-11T11:16:56.903Z,5.20
2019-04-11T11:18:27.215Z,5.00
2019-04-11T11:19:24.605Z,5.00
2019-04-11T11:20:08.540Z,5.40
2019-04-11T11:21:00.847Z,5.00
2019-04-11T11:21:59.872Z,4.80
2019-04-11T11:22:57.274Z,5.20
2019-04-11T11:23:58.489Z,5.10
2019-04-11T11:24:58.057Z,5.20
2019-04-11T11:26:41.054Z,5.80
2019-04-11T11:27:39.967Z,5.30
2019-04-11T11:28:41.046Z,5.80
2019-04-11T11:29:40.439Z,5.20
2019-04-11T11:30:40.165Z,5.20
2019-04-11T11:31:40.760Z,5.30
2019-04-11T11:32:41.179Z,5.70
2019-04-11T11:33:40.608Z,5.90
2019-04-11T11:34:41.104Z,5.70
2019-04-11T11:35:42.485Z,5.50
2019-04-11T11:36:41.624Z,5.70
2019-04-11T11:37:41.622Z,5.40
2019-04-11T11:38:41.823Z,5.60
2019-04-11T11:39:41.412Z,5.40
2019-04-11T11:40:41.637Z,5.80
2019-04-11T11:41:40.915Z,5.90
2019-04-11T11:42:42.098Z,6.00
2019-04-11T11:43:41.249Z,6.10
2019-04-11T11:44:41.276Z,5.60
2019-04-11T11:45:41.627Z,5.90
2019-04-11T11:46:42.542Z,5.60
2019-04-11T11:47:41.686Z,5.40
2019-04-11T11:48:41.754Z,5.20
2019-04-11T11:49:53.382Z,5.10
2019-04-11T11:50:42.619Z,5.60
2019-04-11T11:51:41.586Z,5.70
2019-04-11T11:52:42.823Z,5.10
2019-04-11T11:53:42.596Z,4.90
2019-04-11T11:54:41.825Z,4.40
2019-04-11T11:55:41.741Z,5.20
2019-04-11T11:56:42.427Z,4.90
2019-04-11T11:57:42.705Z,5.00
2019-04-11T11:58:43.515Z,5.50
2019-04-11T11:59:42.840Z,5.10
2019-04-11T12:00:42.146Z,5.80
2019-04-11T12:01:45.313Z,5.90
2019-04-11T12:02:42.400Z,6.10
2019-04-11T12:03:42.476Z,5.40
2019-04-11T12:04:42.315Z,5.20
2019-04-11T12:05:47.108Z,5.30
2019-04-11T12:06:43.024Z,5.20
2019-04-11T12:07:43.085Z,4.90
2019-04-11T12:08:46.625Z,5.30
2019-04-11T12:09:42.632Z,5.40
2019-04-11T12:10:43.814Z,5.20
2019-04-11T12:11:42.753Z,6.00
2019-04-11T12:12:43.862Z,5.70
2019-04-11T12:13:43.290Z,6.00
2019-04-11T12:14:44.934Z,5.30
2019-04-11T12:15:43.526Z,5.30
2019-04-11T12:16:43.935Z,5.40
2019-04-11T12:17:43.137Z,5.10
2019-04-11T12:18:47.226Z,5.70
2019-04-11T12:19:51.140Z,5.80
2019-04-11T12:20:45.319Z,5.50
2019-04-11T12:21:46.272Z,5.20
2019-04-11T12:22:44.376Z,5.00
2019-04-11T12:23:55.565Z,5.20
2019-04-11T12:24:44.781Z,5.40
2019-04-11T12:25:43.657Z,4.40
2019-04-11T12:26:45.779Z,4.70
2019-04-11T12:27:43.800Z,5.40
2019-04-11T12:28:43.829Z,5.90
2019-04-11T12:29:47.845Z,6.20
2019-04-11T12:30:44.170Z,5.50
2019-04-11T12:31:44.066Z,5.40
2019-04-11T12:32:44.415Z,6.10
2019-04-11T12:33:44.145Z,5.50
2019-04-11T12:34:45.177Z,5.70
2019-04-11T12:35:44.413Z,5.90
2019-04-11T12:36:48.009Z,5.80
2019-04-11T12:37:45.432Z,5.90
2019-04-11T12:38:44.460Z,5.30
2019-04-11T12:39:44.526Z,4.60
2019-04-11T12:40:44.588Z,6.00
2019-04-11T12:41:44.651Z,5.90
2019-04-11T12:42:44.719Z,5.80
2019-04-11T12:43:44.777Z,6.20
2019-04-11T12:44:44.841Z,5.90
2019-04-11T12:45:44.905Z,5.50
2019-04-11T12:46:44.968Z,5.90
2019-04-11T12:47:45.093Z,5.40
2019-04-11T12:48:45.095Z,4.60
2019-04-11T12:49:52.795Z,5.40
2019-04-11T12:50:45.220Z,4.80
2019-04-11T12:51:45.285Z,5.70
2019-04-11T12:52:45.347Z,6.00
2019-04-11T12:53:45.412Z,6.00
2019-04-11T12:54:45.478Z,5.50
2019-04-11T12:55:45.540Z,4.80
2019-04-11T12:56:45.631Z,4.80
2019-04-11T12:57:45.666Z,5.40
2019-04-11T12:58:45.726Z,5.50
2019-04-11T12:59:45.791Z,5.30
2019-04-11T13:00:45.857Z,5.30
2019-04-11T13:01:45.974Z,5.70
2019-04-11T13:02:46.369Z,5.80
2019-04-11T13:03:46.070Z,5.30
2019-04-11T13:04:46.107Z,5.60
2019-04-11T13:05:46.170Z,6.10
2019-04-11T13:06:46.245Z,5.20
2019-04-11T13:07:46.298Z,5.40
2019-04-11T13:08:46.360Z,5.00
2019-04-11T13:09:46.632Z,5.50
2019-04-11T13:10:46.488Z,5.50
2019-04-11T13:11:46.551Z,4.90
2019-04-11T13:12:46.614Z,5.20
2019-04-11T13:13:46.678Z,5.60
2019-04-11T13:14:46.741Z,4.70
2019-04-11T13:15:46.805Z,4.00
2019-04-11T13:16:46.868Z,5.00
2019-04-11T13:17:46.932Z,5.50
2019-04-11T13:18:46.994Z,5.00
2019-04-11T13:19:47.059Z,4.80